createdAt,value
2023-03-02T03:30:24.902Z,67.24
2023-03-02T04:02:58.498Z,67.61
2023-03-02T04:09:11.467Z,67.22
2023-03-02T04:11:53.296Z,68.29
2023-03-02T04:17:29.877Z,68.14
2023-03-02T04:19:58.099Z,67.80
2023-03-02T04:22:30.441Z,68.32
2023-03-02T04:25:13.721Z,67.86
2023-03-02T04:30:56.660Z,68.01
2023-03-02T04:33:24.891Z,68.08
2023-03-02T04:36:01.645Z,68.04
2023-03-02T04:38:32.816Z,67.82
2023-03-02T04:41:02.258Z,68.69
2023-03-02T04:46:20.204Z,68.34
2023-03-02T04:48:54.612Z,67.48
2023-03-02T04:51:27.049Z,67.89
2023-03-02T04:58:14.536Z,68.18
2023-03-02T05:00:53.297Z,68.04
2023-03-02T05:06:38.842Z,68.18
2023-03-02T05:09:08.969Z,68.33
2023-03-02T05:11:36.804Z,68.16
2023-03-02T05:17:17.951Z,67.52
2023-03-02T05:19:46.249Z,68.43
2023-03-02T05:22:44.229Z,67.56
2023-03-02T05:25:24.702Z,68.13
2023-03-02T05:48:04.962Z,68.22
2023-03-02T05:50:36.596Z,67.98
2023-03-02T05:56:18.342Z,68.60
2023-03-02T06:02:09.102Z,67.96
2023-03-02T06:04:44.254Z,68.25
2023-03-02T06:07:20.204Z,68.48
2023-03-02T06:09:48.986Z,68.15
2023-03-02T06:12:18.930Z,67.99
2023-03-02T06:23:13.025Z,68.01
2023-03-02T06:25:49.102Z,67.59
2023-03-02T06:28:22.496Z,67.92
2023-03-02T06:30:55.711Z,68.11
2023-03-02T06:33:24.413Z,67.79
2023-03-02T06:35:51.989Z,67.81
2023-03-02T06:38:26.077Z,68.09
2023-03-02T06:40:56.413Z,67.74
2023-03-02T06:43:26.634Z,67.86
2023-03-02T06:45:55.621Z,67.82
2023-03-02T06:48:24.930Z,67.78
2023-03-02T06:50:52.950Z,67.85
2023-03-02T06:53:26.085Z,67.63
2023-03-02T06:55:54.902Z,67.36
2023-03-02T06:58:24.262Z,67.76
2023-03-02T07:00:52.240Z,67.56
2023-03-02T07:03:22.672Z,67.53
2023-03-02T07:05:52.196Z,67.65
2023-03-02T07:08:19.885Z,67.75
2023-03-02T07:10:47.335Z,67.41
2023-03-02T07:13:14.812Z,67.03
2023-03-02T07:15:42.564Z,67.11
2023-03-02T07:18:10.415Z,66.98
2023-03-02T07:20:40.511Z,66.49
2023-03-02T07:23:07.870Z,66.85
2023-03-02T07:25:38.737Z,66.56
2023-03-02T07:28:08.948Z,66.84
2023-03-02T07:30:36.658Z,66.43
2023-03-02T07:33:04.075Z,66.15
2023-03-02T07:35:32.062Z,66.43
2023-03-02T07:37:59.457Z,66.32
2023-03-02T07:40:27.789Z,64.76
2023-03-02T07:42:55.014Z,64.49
2023-03-02T07:45:25.736Z,64.30
2023-03-02T07:47:53.129Z,64.17
2023-03-02T07:50:23.062Z,65.30
2023-03-02T07:52:50.813Z,65.88
2023-03-02T07:55:18.885Z,65.77
2023-03-02T07:57:50.141Z,64.99
2023-03-02T08:00:19.266Z,65.42
2023-03-02T08:02:47.816Z,62.67
2023-03-02T08:05:21.010Z,64.82
2023-03-02T08:07:51.753Z,65.32
2023-03-02T08:10:22.971Z,64.76
2023-03-02T08:12:54.590Z,63.60
2023-03-02T08:15:25.270Z,64.26
2023-03-02T08:17:55.156Z,64.42
2023-03-02T08:20:27.250Z,63.11
2023-03-02T08:23:03.211Z,64.03
2023-03-02T08:25:34.694Z,64.66
2023-03-02T08:28:02.063Z,64.11
2023-03-02T08:30:32.525Z,63.49
2023-03-02T08:33:06.678Z,64.56
2023-03-02T08:38:52.078Z,64.67
2023-03-02T08:41:51.651Z,64.75
2023-03-02T08:44:48.506Z,64.50
2023-03-02T08:50:14.621Z,63.87
2023-03-02T09:02:44.346Z,62.19
2023-03-02T09:16:26.720Z,63.40
2023-03-02T09:18:56.940Z,62.67
2023-03-02T09:24:40.334Z,63.48
2023-03-02T09:27:10.956Z,62.20
2023-03-02T09:29:41.279Z,61.80
2023-03-02T09:47:08.692Z,62.16
2023-03-02T09:50:17.756Z,62.60
2023-03-02T10:03:16.262Z,62.12
2023-03-02T10:09:02.687Z,62.68
2023-03-02T10:12:03.891Z,62.31
2023-03-02T10:14:48.955Z,62.56
2023-03-02T10:17:31.417Z,62.68
2023-03-02T10:20:07.812Z,62.65
2023-03-02T10:22:44.659Z,60.76
2023-03-02T10:25:21.977Z,59.11
2023-03-02T10:28:03.377Z,57.93
2023-03-02T10:30:37.651Z,61.26
2023-03-02T10:33:19.012Z,61.68
2023-03-02T10:36:14.308Z,62.10
2023-03-02T10:38:47.763Z,62.35
2023-03-02T10:41:21.074Z,62.30
2023-03-02T10:43:51.934Z,62.57
2023-03-02T10:46:19.174Z,62.19
2023-03-02T10:48:59.276Z,62.91
2023-03-02T10:51:33.053Z,62.67
2023-03-02T10:54:06.134Z,61.05
2023-03-02T10:56:34.504Z,61.52
2023-03-02T10:59:43.860Z,61.95
2023-03-02T11:02:26.056Z,61.85
2023-03-02T11:05:19.646Z,62.19
2023-03-02T11:08:19.148Z,62.30
2023-03-02T11:10:59.998Z,62.57
2023-03-02T11:13:39.522Z,61.97
2023-03-02T11:16:32.693Z,62.04
2023-03-02T11:19:21.880Z,61.83
2023-03-02T11:29:04.642Z,61.87
2023-03-02T11:32:26.526Z,60.51
2023-03-02T11:34:58.483Z,60.08
2023-03-02T11:37:49.477Z,60.61
2023-03-02T11:40:33.971Z,61.12
2023-03-02T11:50:50.856Z,60.07
2023-03-02T12:00:48.690Z,59.78
2023-03-02T12:10:08.900Z,60.37
2023-03-02T12:12:37.494Z,60.59
2023-03-02T12:15:34.288Z,60.42
2023-03-02T12:18:20.308Z,60.54
2023-03-02T12:21:22.061Z,61.17
2023-03-02T12:23:52.610Z,60.94
2023-03-02T12:26:42.037Z,61.54
2023-03-02T12:29:18.577Z,61.77
2023-03-02T12:31:59.321Z,61.49
2023-03-02T12:34:42.113Z,61.54
2023-03-02T12:37:43.958Z,59.96
2023-03-02T12:40:31.886Z,61.35
2023-03-02T12:43:18.773Z,61.42
2023-03-02T12:49:54.573Z,60.68
2023-03-02T12:52:39.025Z,61.05
2023-03-02T12:55:25.934Z,61.17
2023-03-02T12:58:08.964Z,61.19
2023-03-02T13:01:13.768Z,61.27
2023-03-02T13:06:34.056Z,61.33
2023-03-02T13:09:13.910Z,61.75
2023-03-02T13:11:56.994Z,61.45
2023-03-02T13:14:29.214Z,61.34
2023-03-02T13:17:25.900Z,61.68
2023-03-02T13:20:01.888Z,61.56
2023-03-02T13:22:32.123Z,61.25
2023-03-02T13:25:09.404Z,61.63
2023-03-02T13:27:42.976Z,61.25
2023-03-02T13:30:12.730Z,60.88
2023-03-02T13:32:42.528Z,61.20
2023-03-02T13:38:26.145Z,62.05
2023-03-02T13:41:02.247Z,62.15
2023-03-02T13:43:39.092Z,62.33
2023-03-02T13:46:15.171Z,61.95
2023-03-02T13:55:01.028Z,62.04
2023-03-02T13:57:40.068Z,62.29
2023-03-02T14:01:09.042Z,61.24
2023-03-02T14:03:40.236Z,61.18
2023-03-02T14:06:14.593Z,61.33
2023-03-02T14:08:48.319Z,61.72
2023-03-02T14:11:18.761Z,61.75
2023-03-02T14:13:55.515Z,61.64
2023-03-02T14:16:24.611Z,60.22
2023-03-02T14:19:05.583Z,60.41
2023-03-02T14:21:36.578Z,61.07
2023-03-02T14:24:04.186Z,61.61
2023-03-02T14:26:39.306Z,61.54
2023-03-02T14:29:25.664Z,61.74
2023-03-02T14:31:57.924Z,61.22
2023-03-02T14:34:27.993Z,61.44
2023-03-02T14:36:58.927Z,61.63
2023-03-02T14:39:55.297Z,61.54
2023-03-02T14:42:40.450Z,61.69
2023-03-02T14:45:11.760Z,61.73
2023-03-02T14:47:51.435Z,61.61
2023-03-02T14:50:27.059Z,61.84
2023-03-02T14:52:58.508Z,61.83
2023-03-02T14:55:34.261Z,61.85
2023-03-02T14:58:11.015Z,62.10
2023-03-02T15:00:46.439Z,62.04
2023-03-02T15:03:19.662Z,62.16
2023-03-02T15:06:00.923Z,62.26
2023-03-02T15:08:32.581Z,62.45
2023-03-02T15:11:06.726Z,62.39
2023-03-02T15:13:35.797Z,62.30
2023-03-02T15:16:04.264Z,62.34
2023-03-02T15:18:33.405Z,62.50
2023-03-02T15:21:09.622Z,62.58
2023-03-02T15:23:43.864Z,62.61
2023-03-02T15:26:27.252Z,62.73
2023-03-02T15:29:05.667Z,62.58
2023-03-02T15:31:36.011Z,62.92
2023-03-02T15:34:07.194Z,63.15
2023-03-02T15:36:37.726Z,62.77
2023-03-02T15:39:33.096Z,62.78
2023-03-02T15:43:17.079Z,62.99
2023-03-02T15:46:16.118Z,63.02
2023-03-02T15:49:32.993Z,63.07
2023-03-02T15:56:10.217Z,62.91
2023-03-02T16:05:03.680Z,63.25
2023-03-02T16:10:39.450Z,63.19
2023-03-02T16:13:18.329Z,63.18
2023-03-02T16:15:59.836Z,63.23
2023-03-02T16:18:29.700Z,63.39
2023-03-02T16:21:07.391Z,63.29
2023-03-02T16:23:46.489Z,63.36
2023-03-02T16:26:16.233Z,63.32
2023-03-02T16:28:45.739Z,63.40
2023-03-02T16:31:15.336Z,63.46
2023-03-02T16:33:50.522Z,63.35
2023-03-02T16:36:21.426Z,63.72
2023-03-02T16:39:09.577Z,63.67
2023-03-02T16:41:44.510Z,63.64
2023-03-02T16:44:17.684Z,63.68
2023-03-02T16:46:57.357Z,63.67
2023-03-02T16:49:30.603Z,63.90
2023-03-02T16:52:01.120Z,64.12
2023-03-02T17:00:03.971Z,63.80
2023-03-02T17:02:33.923Z,63.81
2023-03-02T17:05:01.230Z,64.00
2023-03-02T17:07:30.670Z,64.24
2023-03-02T17:10:00.458Z,64.43
2023-03-02T17:12:32.211Z,64.34
2023-03-02T17:15:00.046Z,64.24
2023-03-02T17:17:38.400Z,64.44
2023-03-02T17:20:07.726Z,64.38
2023-03-02T17:22:46.310Z,64.70
2023-03-02T17:25:22.678Z,64.94
2023-03-02T17:28:05.471Z,64.57
2023-03-02T17:30:40.240Z,64.94
2023-03-02T17:33:07.719Z,64.63
2023-03-02T17:35:41.518Z,64.79
2023-03-02T17:38:17.775Z,65.05
2023-03-02T17:40:57.160Z,64.77
2023-03-02T17:43:52.987Z,64.64
2023-03-02T17:46:23.548Z,64.64
2023-03-02T17:48:55.384Z,64.66
2023-03-02T17:51:23.026Z,64.60
2023-03-02T17:53:53.770Z,64.98
2023-03-02T17:56:29.202Z,65.10
2023-03-02T17:59:09.683Z,64.93
2023-03-02T18:01:37.380Z,64.83
2023-03-02T18:04:06.583Z,65.02
2023-03-02T18:06:40.101Z,65.02
2023-03-02T18:09:15.123Z,64.91
2023-03-02T18:12:08.936Z,64.94
2023-03-02T18:14:40.029Z,65.14
2023-03-02T18:17:11.023Z,65.18
2023-03-02T18:19:44.562Z,65.34
2023-03-02T18:22:21.738Z,65.18
2023-03-02T18:24:53.084Z,65.50
2023-03-02T18:27:23.609Z,65.59
2023-03-02T18:29:59.496Z,65.45
2023-03-02T18:32:29.492Z,65.40
2023-03-02T18:34:58.373Z,65.22
2023-03-02T18:37:35.703Z,65.31
2023-03-02T18:43:31.547Z,65.34
2023-03-02T18:49:17.661Z,65.88
2023-03-02T18:52:24.274Z,66.20
2023-03-02T19:01:43.389Z,65.88
2023-03-02T19:04:23.526Z,66.01
2023-03-02T19:07:14.935Z,66.17
2023-03-02T19:27:58.638Z,66.39
2023-03-02T19:30:35.074Z,66.24
2023-03-02T19:33:28.155Z,65.75
2023-03-02T19:35:58.756Z,66.00
2023-03-02T19:38:53.986Z,66.12
2023-03-02T19:41:47.770Z,66.18
2023-03-02T19:45:42.220Z,66.05
2023-03-02T19:47:22.023Z,65.99
2023-03-02T19:53:13.256Z,65.86
2023-03-02T19:55:54.640Z,66.02
2023-03-02T20:01:34.239Z,66.06
2023-03-02T20:04:07.392Z,66.15
2023-03-02T20:06:48.128Z,66.23
2023-03-02T20:09:28.815Z,66.21
2023-03-02T20:12:04.656Z,66.19
2023-03-02T20:14:36.294Z,66.27
2023-03-02T20:17:09.438Z,66.23
2023-03-02T20:19:47.348Z,66.61
2023-03-02T20:22:18.584Z,66.38
2023-03-02T20:27:42.140Z,66.20
2023-03-02T20:30:14.324Z,66.22
2023-03-02T20:32:48.372Z,66.29
2023-03-02T20:35:19.596Z,66.21
2023-03-02T20:37:53.896Z,66.49
2023-03-02T20:40:28.244Z,66.05
2023-03-02T20:43:01.982Z,66.13
2023-03-02T20:45:31.274Z,66.90
2023-03-02T20:48:25.355Z,66.50
2023-03-02T20:51:00.109Z,66.59
2023-03-02T20:53:53.322Z,66.51
2023-03-02T20:56:33.152Z,66.51
2023-03-02T20:59:03.408Z,66.53
2023-03-02T21:01:34.077Z,66.45
2023-03-02T21:04:07.228Z,67.06
2023-03-02T21:06:52.443Z,66.84
2023-03-02T21:09:22.642Z,66.81
2023-03-02T21:15:06.045Z,66.73
2023-03-02T21:17:40.362Z,66.44
2023-03-02T21:20:12.426Z,66.60
2023-03-02T21:22:46.246Z,66.31
2023-03-02T21:25:17.284Z,66.38
2023-03-02T21:27:48.220Z,66.67
2023-03-02T21:30:27.346Z,66.70
2023-03-02T21:33:24.125Z,66.35
2023-03-02T21:35:54.725Z,66.88
2023-03-02T21:38:22.762Z,67.20
2023-03-02T21:40:59.741Z,67.15
2023-03-02T21:43:29.533Z,67.11
2023-03-02T21:46:03.916Z,66.87
2023-03-02T21:48:33.670Z,67.21
2023-03-02T21:53:46.565Z,66.88
2023-03-02T21:57:05.996Z,66.90
2023-03-02T21:59:36.667Z,66.67
2023-03-02T22:02:11.428Z,66.84
2023-03-02T22:04:41.142Z,66.76
2023-03-02T22:07:18.221Z,66.87
2023-03-02T22:10:08.685Z,67.22
2023-03-02T22:12:43.339Z,67.08
2023-03-02T22:20:51.122Z,67.45
2023-03-02T22:23:23.302Z,67.63
2023-03-02T22:26:03.212Z,67.64
2023-03-02T22:28:34.617Z,67.50
2023-03-02T22:31:05.431Z,67.58
2023-03-02T22:33:50.688Z,67.32
2023-03-02T22:36:27.931Z,67.46
2023-03-02T22:39:05.260Z,67.19
2023-03-02T22:41:35.138Z,67.40
2023-03-02T22:44:20.982Z,67.42
2023-03-02T22:46:51.297Z,67.45
2023-03-02T22:49:18.338Z,67.47
2023-03-02T22:51:57.248Z,67.16
2023-03-02T22:57:34.338Z,67.12
2023-03-02T23:00:05.988Z,67.35
2023-03-02T23:02:37.450Z,67.59
2023-03-02T23:05:30.594Z,67.65
2023-03-02T23:08:24.473Z,67.44
2023-03-02T23:16:37.041Z,68.20
2023-03-02T23:19:16.130Z,68.28
2023-03-02T23:22:00.007Z,67.60
2023-03-02T23:24:39.949Z,67.83
2023-03-02T23:27:30.968Z,67.75
2023-03-02T23:30:31.412Z,67.61
2023-03-02T23:32:58.765Z,67.93
2023-03-02T23:35:26.598Z,67.94
2023-03-02T23:38:02.800Z,67.77
2023-03-02T23:40:44.950Z,68.32
2023-03-02T23:43:12.545Z,68.35
2023-03-02T23:45:42.953Z,68.26
2023-03-02T23:48:10.017Z,67.82
2023-03-02T23:50:37.148Z,68.29
2023-03-02T23:53:05.226Z,68.55
2023-03-02T23:55:33.731Z,68.08
2023-03-02T23:58:03.400Z,67.88
